Time;durP1;ratioP1;P1;durP2;ratioP2;P2;SDS_P1;SDS_P2;PMS_P1;PMS_P2;Temp;Humidity;BMP_temperature;BMP_pressure;BME280_temperature;BME280_humidity;BME280_pressure;Samples;Min_cycle;Max_cycle;Signal;HPM_P1;HPM_P2
2021/12/04 00:00:11;;;;;;;4.27;4.00;;;6.20;42.70;;;;;;21132;6653;301060;-86
2021/12/04 00:02:36;;;;;;;3.90;3.60;;;6.40;43.30;;;;;;21340;6661;88656;-86
2021/12/04 00:05:04;;;;;;;4.55;4.25;;;6.30;43.50;;;;;;21164;6653;291111;-86
2021/12/04 00:07:29;;;;;;;4.45;4.15;;;6.40;43.40;;;;;;21344;6653;66362;-86
2021/12/04 00:10:00;;;;;;;3.50;3.30;;;6.40;43.60;;;;;;21352;6653;66379;-86
2021/12/04 00:12:19;;;;;;;3.90;3.70;;;6.20;44.00;;;;;;21131;6661;304540;-86
2021/12/04 00:14:45;;;;;;;3.75;3.55;;;6.30;44.10;;;;;;21389;6653;67138;-87
2021/12/04 00:17:10;;;;;;;3.87;3.50;;;6.20;44.60;;;;;;21345;6653;67239;-85
2021/12/04 00:19:36;;;;;;;4.43;4.13;;;6.20;44.60;;;;;;21175;6653;275079;-86
2021/12/04 00:22:01;;;;;;;4.10;3.80;;;6.30;43.50;;;;;;21144;6653;298231;-87
2021/12/04 00:24:27;;;;;;;3.80;3.50;;;6.60;43.30;;;;;;21351;6653;66362;-85
2021/12/04 00:26:53;;;;;;;3.23;3.03;;;6.60;43.50;;;;;;21350;6653;67926;-87
2021/12/04 00:29:18;;;;;;;2.83;2.62;;;6.40;44.00;;;;;;21348;6653;69292;-87
2021/12/04 00:31:52;;;;;;;2.92;2.83;;;6.20;44.50;;;;;;21348;6653;67135;-85
2021/12/04 00:34:15;;;;;;;3.20;3.00;;;6.00;44.80;;;;;;21346;6653;66354;-86
2021/12/04 00:50:14;;;;;;;2.70;2.60;;;5.80;45.00;;;;;;21357;6653;66286;-86
2021/12/04 00:52:40;;;;;;;3.60;2.70;;;5.90;44.90;;;;;;21400;6653;66727;-88
2021/12/04 00:55:06;;;;;;;3.00;2.80;;;5.80;45.20;;;;;;21095;6653;301335;-85
2021/12/04 00:57:31;;;;;;;2.80;2.60;;;5.90;43.80;;;;;;21141;6653;302355;-86
2021/12/04 00:59:57;;;;;;;2.83;2.63;;;6.30;42.80;;;;;;21096;6653;275199;-87
2021/12/04 01:02:22;;;;;;;2.53;2.35;;;6.60;42.20;;;;;;21123;6653;283000;-86
2021/12/04 01:04:48;;;;;;;2.80;2.60;;;6.90;41.60;;;;;;21353;6653;66851;-86
2021/12/04 01:07:13;;;;;;;2.90;2.70;;;6.80;42.10;;;;;;21133;6651;327331;-86
2021/12/04 01:09:39;;;;;;;2.37;2.28;;;6.80;42.40;;;;;;21408;6652;66771;-87
2021/12/04 01:12:05;;;;;;;2.30;2.20;;;6.70;42.80;;;;;;21349;6653;66772;-87
2021/12/04 01:14:31;;;;;;;3.50;2.80;;;6.40;43.20;;;;;;21132;6653;301143;-86
2021/12/04 01:16:56;;;;;;;3.03;2.80;;;6.50;43.10;;;;;;21134;6653;333997;-85
2021/12/04 01:19:22;;;;;;;3.47;3.20;;;6.70;43.50;;;;;;21357;6653;67284;-85
2021/12/04 01:21:48;;;;;;;3.20;3.00;;;6.70;43.50;;;;;;21352;6653;66834;-89
2021/12/04 01:24:13;;;;;;;3.17;2.93;;;6.50;44.20;;;;;;21358;6653;66294;-85
2021/12/04 01:26:39;;;;;;;3.57;3.10;;;6.20;44.90;;;;;;21362;6653;66370;-85
2021/12/04 01:29:05;;;;;;;3.85;3.55;;;6.00;45.50;;;;;;21151;6661;335908;-89
2021/12/04 01:31:31;;;;;;;3.50;3.30;;;6.10;46.60;;;;;;21383;6653;66291;-89
2021/12/04 01:33:56;;;;;;;3.37;3.17;;;6.10;46.60;;;;;;21418;6653;66240;-89
2021/12/04 01:36:22;;;;;;;4.30;4.00;;;5.90;46.90;;;;;;21184;6653;296456;-88
2021/12/04 01:38:47;;;;;;;4.37;4.07;;;6.00;48.30;;;;;;21354;6653;69458;-86
2021/12/04 01:41:13;;;;;;;4.30;3.90;;;6.00;48.20;;;;;;21353;6661;66405;-87
2021/12/04 01:43:39;;;;;;;5.20;4.90;;;5.80;48.40;;;;;;21169;6653;300766;-86
2021/12/04 01:46:04;;;;;;;4.90;4.57;;;5.80;49.50;;;;;;21357;6653;66855;-86
2021/12/04 01:48:30;;;;;;;4.67;4.33;;;5.80;49.40;;;;;;21356;6653;66743;-86
2021/12/04 01:50:56;;;;;;;4.83;4.53;;;5.60;49.60;;;;;;21344;6653;66768;-86
2021/12/04 01:53:21;;;;;;;6.30;5.87;;;5.40;50.00;;;;;;21130;6653;329835;-86
2021/12/04 01:55:46;;;;;;;5.97;5.57;;;5.50;50.90;;;;;;21135;6653;273344;-87
2021/12/04 01:58:12;;;;;;;5.30;4.80;;;5.70;50.90;;;;;;21343;6653;67839;-86
2021/12/04 02:00:38;;;;;;;5.80;5.37;;;5.70;50.60;;;;;;21137;6653;301137;-86
2021/12/04 02:03:04;;;;;;;6.23;5.83;;;5.70;51.20;;;;;;21119;6653;335140;-86
2021/12/04 02:05:29;;;;;;;5.90;5.50;;;5.90;51.30;;;;;;21137;6653;328725;-88
2021/12/04 02:07:54;;;;;;;5.45;5.05;;;6.10;51.20;;;;;;21351;6653;66346;-87
2021/12/04 02:10:21;;;;;;;5.90;5.50;;;5.90;51.80;;;;;;21134;6653;301931;-85
2021/12/04 02:12:48;;;;;;;6.10;5.70;;;5.90;51.50;;;;;;21142;6653;273197;-86
2021/12/04 02:15:12;;;;;;;5.78;5.37;;;6.10;51.60;;;;;;21131;6653;301588;-85
2021/12/04 02:17:37;;;;;;;5.70;5.23;;;6.30;51.40;;;;;;21351;6653;67310;-85
2021/12/04 02:20:03;;;;;;;5.53;5.13;;;6.10;51.30;;;;;;21358;6652;66311;-87
2021/12/04 02:22:28;;;;;;;6.47;6.00;;;5.80;51.80;;;;;;21116;6653;271992;-86
2021/12/04 02:24:54;;;;;;;6.17;5.67;;;5.80;52.40;;;;;;21355;6653;66426;-84
2021/12/04 02:27:20;;;;;;;5.97;5.57;;;5.50;52.70;;;;;;21345;6653;66764;-84
2021/12/04 02:29:47;;;;;;;5.80;5.40;;;5.50;52.70;;;;;;21389;6653;66717;-84
2021/12/04 02:32:11;;;;;;;6.37;5.87;;;5.30;53.10;;;;;;21385;6653;67210;-84
2021/12/04 02:34:37;;;;;;;5.73;5.33;;;5.10;53.40;;;;;;21332;6653;66345;-85
2021/12/04 02:37:03;;;;;;;5.70;5.28;;;5.00;53.80;;;;;;21347;6653;71230;-83
2021/12/04 02:39:31;;;;;;;5.35;4.97;;;4.90;54.30;;;;;;21348;6653;66693;-82
2021/12/04 02:41:54;;;;;;;5.60;5.20;;;4.80;54.20;;;;;;21347;6653;66441;-84
2021/12/04 02:44:20;;;;;;;5.37;4.87;;;4.80;54.40;;;;;;21355;6653;66805;-83
2021/12/04 02:46:45;;;;;;;6.77;6.30;;;4.70;54.60;;;;;;21184;6653;272612;-83
2021/12/04 02:49:12;;;;;;;6.70;6.20;;;5.00;55.40;;;;;;21142;6653;301175;-82
2021/12/04 02:51:37;;;;;;;6.40;5.90;;;5.40;55.20;;;;;;21140;6653;300462;-82
2021/12/04 02:54:02;;;;;;;5.87;5.47;;;5.70;54.60;;;;;;21381;6653;66834;-83
2021/12/04 02:56:28;;;;;;;5.55;5.15;;;5.70;54.20;;;;;;21343;6653;66985;-83
2021/12/04 02:59:00;;;;;;;5.47;5.12;;;5.50;54.40;;;;;;21354;6653;66867;-85
2021/12/04 03:01:19;;;;;;;6.00;5.60;;;5.30;54.90;;;;;;21110;6653;301473;-82
2021/12/04 03:03:44;;;;;;;5.90;5.50;;;5.40;54.90;;;;;;21113;6661;277647;-82
2021/12/04 03:06:10;;;;;;;6.10;5.70;;;5.70;55.00;;;;;;21134;6653;302018;-86
2021/12/04 03:08:36;;;;;;;5.27;4.87;;;6.00;54.70;;;;;;21363;6653;67768;-83
2021/12/04 03:11:01;;;;;;;5.07;4.77;;;5.90;53.80;;;;;;21360;6653;66746;-84
2021/12/04 03:13:27;;;;;;;5.80;5.40;;;5.70;54.20;;;;;;21138;6653;271996;-85
2021/12/04 03:15:59;;;;;;;4.90;4.50;;;5.70;54.60;;;;;;21352;6653;66918;-83
2021/12/04 03:18:24;;;;;;;5.72;5.43;;;5.70;54.50;;;;;;21128;6653;290611;-83
2021/12/04 03:20:52;;;;;;;4.93;4.55;;;5.80;54.80;;;;;;21381;6653;71609;-82
2021/12/04 03:23:18;;;;;;;5.15;4.85;;;5.80;54.70;;;;;;21126;6653;312769;-82
2021/12/04 03:25:42;;;;;;;4.40;4.10;;;5.80;54.90;;;;;;21341;6653;66284;-82
2021/12/04 03:28:07;;;;;;;5.10;4.70;;;5.80;54.70;;;;;;21127;6653;301954;-82
2021/12/04 03:30:42;;;;;;;5.60;5.20;;;5.90;54.90;;;;;;21137;6651;272643;-83
2021/12/04 03:41:02;;;;;;;5.20;4.80;;;5.60;55.10;;;;;;21152;6646;300465;-82
2021/12/04 03:43:20;;;;;;;5.43;5.12;;;5.80;55.40;;;;;;21113;6646;314835;-82
2021/12/04 03:45:48;;;;;;;5.20;4.80;;;6.10;54.90;;;;;;21380;6646;66693;-82
2021/12/04 03:48:39;;;;;;;4.90;4.40;;;6.00;54.60;;;;;;21363;6646;70855;-82
2021/12/04 03:50:39;;;;;;;5.72;5.32;;;5.80;55.00;;;;;;21090;6646;307180;-82
2021/12/04 03:53:05;;;;;;;5.77;4.90;;;5.80;55.40;;;;;;21364;6646;66656;-84
2021/12/04 03:55:31;;;;;;;4.57;4.27;;;5.80;55.40;;;;;;21402;6646;66563;-82
2021/12/04 03:57:56;;;;;;;4.90;4.50;;;5.60;55.70;;;;;;21342;6661;66641;-82
2021/12/04 04:00:25;;;;;;;4.40;4.10;;;5.50;56.10;;;;;;21349;6653;66631;-82
2021/12/04 04:02:47;;;;;;;6.57;6.07;;;5.30;56.30;;;;;;21154;6653;334242;-82
2021/12/04 04:05:13;;;;;;;5.70;5.30;;;5.50;56.70;;;;;;21354;6653;67291;-82
2021/12/04 04:07:38;;;;;;;5.67;5.17;;;5.50;56.30;;;;;;21366;6653;66784;-81
2021/12/04 04:10:04;;;;;;;7.00;6.40;;;5.30;56.50;;;;;;21162;6653;287288;-82
2021/12/04 04:12:30;;;;;;;7.67;6.97;;;5.50;56.90;;;;;;21119;6653;288597;-82
2021/12/04 04:14:55;;;;;;;5.50;5.10;;;5.80;56.60;;;;;;21351;6653;66362;-82
2021/12/04 04:17:21;;;;;;;6.45;6.05;;;5.90;56.50;;;;;;21136;6653;301161;-82
2021/12/04 04:19:47;;;;;;;5.90;5.40;;;5.90;56.50;;;;;;21352;6653;67249;-81
2021/12/04 04:22:12;;;;;;;5.25;4.87;;;5.90;56.30;;;;;;21350;6653;66781;-81
2021/12/04 04:24:38;;;;;;;5.87;4.73;;;5.70;56.70;;;;;;21350;6653;66464;-82
2021/12/04 04:27:04;;;;;;;5.53;5.03;;;5.50;57.00;;;;;;21353;6653;68246;-82
2021/12/04 04:29:29;;;;;;;6.15;5.75;;;5.30;57.40;;;;;;21115;6661;321791;-81
2021/12/04 04:31:56;;;;;;;5.20;4.90;;;5.60;57.50;;;;;;21353;6653;66782;-80
2021/12/04 04:34:33;;;;;;;6.13;5.73;;;5.60;57.50;;;;;;21138;6653;305771;-83
2021/12/04 05:01:57;;;;;;;5.23;4.83;;;5.80;58.50;;;;;;21362;6653;67791;-82
2021/12/04 05:11:41;;;;;;;5.77;5.37;;;5.30;59.00;;;;;;21127;6653;335843;-83
2021/12/04 05:14:04;;;;;;;4.40;4.10;;;5.50;59.50;;;;;;21335;6653;69538;-85
2021/12/04 05:16:40;;;;;;;4.53;4.17;;;5.60;59.00;;;;;;21366;6653;67277;-84
2021/12/04 05:19:00;;;;;;;4.20;3.20;;;5.50;59.10;;;;;;21375;6653;66702;-86
2021/12/04 05:21:22;;;;;;;4.10;3.90;;;5.40;60.00;;;;;;21156;6653;300612;-83
2021/12/04 05:23:48;;;;;;;3.70;3.40;;;5.60;60.00;;;;;;21383;6653;66302;-85
2021/12/04 05:26:16;;;;;;;3.90;3.62;;;5.70;59.50;;;;;;21389;6653;69763;-86
2021/12/04 05:28:42;;;;;;;3.70;3.50;;;5.60;59.70;;;;;;21335;6653;66301;-85
2021/12/04 05:31:07;;;;;;;4.07;3.75;;;5.50;59.80;;;;;;21362;6653;67163;-84
2021/12/04 05:33:33;;;;;;;4.70;4.30;;;5.40;60.00;;;;;;21369;6653;67324;-84
2021/12/04 05:35:58;;;;;;;3.90;3.60;;;5.30;60.20;;;;;;21371;6653;69757;-85
2021/12/04 05:38:24;;;;;;;4.07;3.77;;;5.20;60.30;;;;;;21352;6661;71525;-84
2021/12/04 05:43:25;;;;;;;4.87;4.47;;;5.50;60.90;;;;;;21282;6547;303983;-86
2021/12/04 05:46:08;;;;;;;4.63;4.27;;;5.80;60.20;;;;;;21407;6642;66787;-83
2021/12/04 05:51:04;;;;;;;5.03;4.62;;;5.70;59.70;;;;;;21220;6630;304098;-85
2021/12/04 05:53:23;;;;;;;4.13;3.73;;;5.90;60.20;;;;;;21344;6646;66933;-85
2021/12/04 05:55:52;;;;;;;6.20;3.60;;;5.90;59.90;;;;;;21372;6647;66445;-84
2021/12/04 05:58:28;;;;;;;3.97;3.67;;;5.60;60.40;;;;;;21375;6645;67537;-85
2021/12/04 06:00:53;;;;;;;5.60;5.10;;;5.60;60.30;;;;;;21220;6629;307594;-85
2021/12/04 06:03:19;;;;;;;6.20;5.60;;;5.80;60.80;;;;;;21218;6629;271775;-84
2021/12/04 06:05:44;;;;;;;6.67;5.40;;;6.10;60.20;;;;;;21221;6630;301540;-85
2021/12/04 06:08:10;;;;;;;4.93;4.57;;;6.40;59.50;;;;;;21393;6646;66779;-84
2021/12/04 06:10:36;;;;;;;6.20;5.70;;;6.30;59.10;;;;;;21176;6647;300459;-86
2021/12/04 06:13:01;;;;;;;6.30;5.70;;;6.40;59.40;;;;;;21189;6640;312696;-85
2021/12/04 06:15:27;;;;;;;6.00;5.60;;;6.60;59.10;;;;;;21061;6647;329981;-85
2021/12/04 06:17:54;;;;;;;4.80;4.40;;;6.80;58.70;;;;;;21374;6645;66763;-85
2021/12/04 06:23:03;;;;;;;5.10;4.60;;;6.40;59.10;;;;;;21423;6634;69727;-87
2021/12/04 06:25:29;;;;;;;6.22;4.37;;;6.10;59.80;;;;;;21449;6630;67585;-85
2021/12/04 06:27:55;;;;;;;4.17;3.87;;;5.90;60.30;;;;;;21380;6646;66271;-86
2021/12/04 06:30:21;;;;;;;5.60;5.10;;;5.90;61.90;;;;;;21216;6630;303715;-85
2021/12/04 06:32:48;;;;;;;5.55;5.05;;;5.90;61.30;;;;;;21164;6646;330613;-86
2021/12/04 06:35:12;;;;;;;4.97;4.68;;;6.30;60.80;;;;;;21179;6647;270367;-85
2021/12/04 06:37:38;;;;;;;4.20;3.90;;;6.60;60.50;;;;;;21222;6630;298951;-86
2021/12/04 06:40:03;;;;;;;3.60;3.40;;;6.80;59.50;;;;;;21408;6642;66589;-84
2021/12/04 06:42:29;;;;;;;4.30;4.03;;;6.70;59.30;;;;;;21219;6627;293709;-87
2021/12/04 06:44:56;;;;;;;4.00;3.80;;;6.70;59.70;;;;;;21215;6627;304464;-87
2021/12/04 06:47:20;;;;;;;4.43;3.33;;;7.00;59.70;;;;;;21437;6627;66147;-86
2021/12/04 06:49:46;;;;;;;3.67;3.47;;;6.80;59.40;;;;;;21445;6627;66263;-88
2021/12/04 06:52:18;;;;;;;3.08;2.87;;;6.60;60.00;;;;;;21445;6627;66131;-88
2021/12/04 06:54:44;;;;;;;4.20;3.60;;;6.40;60.60;;;;;;21238;6625;291087;-88
2021/12/04 06:57:09;;;;;;;3.50;3.20;;;6.50;61.30;;;;;;21248;6627;271238;-89
2021/12/04 06:59:33;;;;;;;2.97;2.77;;;6.70;60.60;;;;;;21432;6627;66746;-84
2021/12/04 07:01:57;;;;;;;2.40;2.30;;;6.70;60.60;;;;;;21442;6627;66138;-88
2021/12/04 07:04:29;;;;;;;4.13;2.50;;;6.60;61.10;;;;;;21232;6627;293578;-90
2021/12/04 07:06:50;;;;;;;3.03;2.83;;;6.70;61.70;;;;;;21425;6627;66102;-88
2021/12/04 07:09:14;;;;;;;3.50;3.30;;;6.70;61.40;;;;;;21216;6627;303967;-89
2021/12/04 07:11:39;;;;;;;3.47;3.28;;;6.80;61.60;;;;;;21224;6627;299664;-88
2021/12/04 07:14:05;;;;;;;3.03;2.85;;;7.10;61.10;;;;;;21215;6627;320970;-89
2021/12/04 07:16:31;;;;;;;2.93;2.73;;;7.30;60.40;;;;;;21216;6627;290800;-89
2021/12/04 07:18:56;;;;;;;2.20;2.10;;;7.50;59.90;;;;;;21432;6627;66111;-87
2021/12/04 07:21:23;;;;;;;2.63;2.43;;;7.40;59.80;;;;;;21418;6630;71459;-86
2021/12/04 07:23:54;;;;;;;2.78;2.58;;;7.10;60.30;;;;;;21157;6646;329682;-88
2021/12/04 07:26:17;;;;;;;2.30;2.20;;;7.10;61.00;;;;;;21386;6630;66171;-84
2021/12/04 07:28:42;;;;;;;2.83;2.62;;;7.10;60.90;;;;;;21192;6646;301049;-86
2021/12/04 07:31:08;;;;;;;3.20;2.20;;;7.20;61.20;;;;;;21449;6630;66740;-86
2021/12/04 07:33:34;;;;;;;2.03;1.93;;;7.10;60.90;;;;;;21402;6646;66275;-85
2021/12/04 07:36:00;;;;;;;3.33;3.12;;;6.90;61.30;;;;;;21233;6630;279623;-86
2021/12/04 07:38:25;;;;;;;2.77;2.57;;;7.30;60.80;;;;;;21168;6646;322337;-89
2021/12/04 07:40:51;;;;;;;3.90;3.70;;;7.30;60.70;;;;;;21376;6647;67644;-87
2021/12/04 07:43:17;;;;;;;3.33;3.13;;;7.30;60.50;;;;;;21182;6640;274359;-89
2021/12/04 07:45:42;;;;;;;2.70;2.50;;;7.40;60.00;;;;;;21379;6646;67495;-88
2021/12/04 07:48:08;;;;;;;3.47;3.27;;;7.40;60.00;;;;;;21441;6630;66715;-88
2021/12/04 07:50:33;;;;;;;3.62;3.33;;;7.30;60.40;;;;;;21169;6646;301762;-88
2021/12/04 07:52:59;;;;;;;3.33;2.92;;;7.40;60.40;;;;;;21260;6630;300020;-88
2021/12/04 07:55:24;;;;;;;2.07;1.97;;;7.70;59.80;;;;;;21383;6646;66962;-88
2021/12/04 07:57:50;;;;;;;2.30;2.13;;;7.70;59.50;;;;;;21484;6630;66164;-89
2021/12/04 08:00:15;;;;;;;1.90;1.80;;;7.50;60.00;;;;;;21380;6646;70590;-88
2021/12/04 08:02:42;;;;;;;2.20;2.10;;;7.20;61.00;;;;;;21367;6647;68663;-88
2021/12/04 08:05:08;;;;;;;1.70;1.60;;;7.20;61.00;;;;;;21166;6643;316734;-87
2021/12/04 08:07:33;;;;;;;8.17;7.33;;;7.40;61.70;;;;;;21490;6628;66120;-89
2021/12/04 08:09:59;;;;;;;2.97;2.77;;;7.40;61.60;;;;;;21485;6628;66148;-87
2021/12/04 08:12:25;;;;;;;2.20;2.10;;;7.40;61.60;;;;;;21444;6629;66602;-85
2021/12/04 08:14:53;;;;;;;3.50;3.20;;;7.30;61.90;;;;;;21224;6629;300704;-86
2021/12/04 08:17:16;;;;;;;2.73;2.57;;;7.50;62.60;;;;;;21240;6629;304625;-87
2021/12/04 08:19:42;;;;;;;4.07;3.87;;;7.90;62.10;;;;;;21441;6629;66516;-85
2021/12/04 08:22:08;;;;;;;2.60;2.40;;;8.00;61.50;;;;;;21229;6629;301045;-89
2021/12/04 08:24:33;;;;;;;2.73;2.63;;;8.10;61.80;;;;;;21216;6630;304465;-87
2021/12/04 08:26:59;;;;;;;6.50;6.07;;;8.40;61.10;;;;;;21395;6646;67138;-84
2021/12/04 08:29:24;;;;;;;4.22;3.85;;;8.30;60.70;;;;;;21251;6630;300436;-82
2021/12/04 08:31:50;;;;;;;3.37;3.17;;;8.40;61.00;;;;;;21403;6646;66561;-83
2021/12/04 08:34:16;;;;;;;4.43;4.03;;;8.40;61.20;;;;;;21194;6642;337619;-88
2021/12/04 08:36:42;;;;;;;3.00;2.80;;;8.30;61.10;;;;;;21428;6630;88363;-87
2021/12/04 08:39:07;;;;;;;3.15;2.95;;;8.30;60.90;;;;;;21225;6630;271474;-88
2021/12/04 08:41:33;;;;;;;3.90;3.60;;;8.40;61.40;;;;;;21377;6646;66666;-87
2021/12/04 08:43:59;;;;;;;5.80;5.40;;;8.30;61.20;;;;;;21376;6647;69224;-87
2021/12/04 08:46:25;;;;;;;5.63;5.27;;;7.90;62.10;;;;;;21395;6645;67278;-89
2021/12/04 08:48:50;;;;;;;3.27;3.07;;;7.90;62.10;;;;;;21441;6629;67921;-89
2021/12/04 08:51:18;;;;;;;6.45;4.30;;;7.70;62.70;;;;;;21199;6629;303599;-89
2021/12/04 08:53:41;;;;;;;3.80;3.57;;;7.90;63.70;;;;;;21425;6629;71158;-90
2021/12/04 08:56:09;;;;;;;2.67;2.30;;;7.90;63.50;;;;;;21432;6629;66582;-91
2021/12/04 08:58:39;;;;;;;2.13;2.03;;;7.90;63.50;;;;;;21443;6629;66923;-89
2021/12/04 09:01:00;;;;;;;4.70;3.07;;;7.90;64.00;;;;;;21226;6629;301298;-91
2021/12/04 09:03:26;;;;;;;1.63;1.50;;;8.00;64.90;;;;;;21461;6629;66577;-88
2021/12/04 09:05:53;;;;;;;1.83;1.10;;;8.10;64.20;;;;;;21455;6629;70849;-88
2021/12/04 09:08:19;;;;;;;2.67;1.50;;;8.10;64.40;;;;;;21518;6627;66086;-94
2021/12/04 09:10:47;;;;;;;3.92;3.62;;;8.00;64.70;;;;;;21499;6627;69259;-94
2021/12/04 09:13:10;;;;;;;8.77;8.10;;;7.90;65.10;;;;;;21263;6627;328690;-89
2021/12/04 09:15:36;;;;;;;5.20;4.90;;;8.10;65.90;;;;;;21494;6626;66160;-88
2021/12/04 09:18:01;;;;;;;3.00;2.90;;;8.30;65.20;;;;;;21476;6626;66399;-91
2021/12/04 09:20:29;;;;;;;2.72;2.55;;;8.20;65.20;;;;;;21497;6627;66215;-90
2021/12/04 09:22:53;;;;;;;2.65;2.55;;;8.20;65.40;;;;;;21435;6627;67247;-91
2021/12/04 09:25:22;;;;;;;2.27;2.10;;;8.10;65.60;;;;;;21430;6627;69437;-89
2021/12/04 09:27:58;;;;;;;1.20;1.10;;;8.10;65.90;;;;;;21426;6627;70321;-88
2021/12/04 09:30:25;;;;;;;3.00;2.20;;;8.10;66.10;;;;;;21161;6627;334593;-91
2021/12/04 10:02:44;;;;;;;1.17;1.00;;;9.90;63.50;;;;;;21217;6627;327608;-86
2021/12/04 10:34:52;;;;;;;2.27;0.83;;;10.00;65.40;;;;;;21439;6627;66253;-88
2021/12/04 10:37:22;;;;;;;1.10;1.10;;;10.20;64.50;;;;;;21437;6627;66483;-86
2021/12/04 10:39:43;;;;;;;1.40;0.60;;;10.20;64.40;;;;;;21218;6627;278780;-85
2021/12/04 10:42:15;;;;;;;0.50;0.50;;;10.40;64.70;;;;;;21226;6627;271439;-87
2021/12/04 10:44:34;;;;;;;0.90;0.90;;;10.70;63.60;;;;;;21195;6627;271324;-85
2021/12/04 10:47:01;;;;;;;0.67;0.63;;;11.00;62.50;;;;;;21412;6630;66687;-88
2021/12/04 10:49:30;;;;;;;1.80;0.67;;;11.10;61.90;;;;;;21372;6642;69015;-87
2021/12/04 10:52:02;;;;;;;4.60;2.70;;;10.90;62.20;;;;;;21372;6645;71257;-88
2021/12/04 10:54:26;;;;;;;5.10;4.70;;;10.70;62.70;;;;;;21182;6630;303701;-86
2021/12/04 10:57:15;;;;;;;4.12;3.92;;;10.80;62.90;;;;;;21155;6646;328755;-88
2021/12/04 10:59:43;;;;;;;4.37;4.07;;;11.10;62.20;;;;;;21124;6647;297275;-86
2021/12/04 11:02:19;;;;;;;2.73;2.63;;;11.40;61.70;;;;;;21375;6645;67178;-87
2021/12/04 11:26:33;;;;;;;2.70;2.50;;;10.70;62.80;;;;;;21162;6646;306268;-87
2021/12/04 11:37:00;;;;;;;0.53;0.53;;;11.10;61.90;;;;;;21399;6645;66730;-90
2021/12/04 11:46:46;;;;;;;1.05;1.05;;;10.50;62.80;;;;;;21439;6634;66193;-86
2021/12/04 11:49:14;;;;;;;0.90;0.90;;;10.50;63.20;;;;;;21451;6634;66591;-90
2021/12/04 11:51:46;;;;;;;1.50;0.67;;;10.40;63.40;;;;;;21215;6634;283425;-88
2021/12/04 11:54:11;;;;;;;1.08;1.08;;;10.60;63.90;;;;;;21256;6630;305960;-92
2021/12/04 11:56:37;;;;;;;0.77;0.77;;;11.10;63.20;;;;;;21412;6646;66830;-88
2021/12/04 11:59:03;;;;;;;0.80;0.80;;;11.10;62.40;;;;;;21184;6640;270654;-89
2021/12/04 12:01:32;;;;;;;1.60;1.50;;;11.30;62.30;;;;;;21159;6647;275894;-88
2021/12/04 12:04:00;;;;;;;2.33;2.23;;;11.60;61.40;;;;;;21338;6647;67202;-89
2021/12/04 12:06:30;;;;;;;1.73;1.62;;;11.70;60.70;;;;;;21139;6647;291549;-90
2021/12/04 12:09:12;;;;;;;1.00;1.00;;;11.70;60.70;;;;;;21380;6645;68804;-90
2021/12/04 12:11:37;;;;;;;1.27;1.27;;;11.40;60.90;;;;;;21307;6627;67777;-90
2021/12/04 12:14:05;;;;;;;2.20;2.10;;;11.40;60.90;;;;;;21422;6627;67137;-87
2021/12/04 12:16:31;;;;;;;1.42;1.42;;;11.20;61.10;;;;;;21223;6627;271930;-84
2021/12/04 12:18:56;;;;;;;2.20;1.60;;;11.30;61.40;;;;;;21435;6627;66577;-90
2021/12/04 12:21:24;;;;;;;2.00;1.90;;;11.30;61.20;;;;;;21213;6627;329752;-87
2021/12/04 12:27:01;;;;;;;3.03;2.90;;;11.70;60.40;;;;;;21218;6627;271775;-87
2021/12/04 12:32:33;;;;;;;3.57;3.37;;;12.20;59.90;;;;;;21442;6627;66195;-87
2021/12/04 12:37:19;;;;;;;2.03;1.93;;;11.60;60.40;;;;;;21427;6627;66357;-84
2021/12/04 12:40:02;;;;;;;1.60;1.60;;;11.10;61.80;;;;;;21436;6627;66471;-87
2021/12/04 12:42:31;;;;;;;3.03;1.90;;;11.00;61.60;;;;;;21434;6627;66598;-86
2021/12/04 12:45:20;;;;;;;5.37;5.07;;;10.90;62.30;;;;;;21213;6627;299864;-87
2021/12/04 12:47:48;;;;;;;2.50;2.27;;;11.10;62.70;;;;;;20320;6976;68229;-86
2021/12/04 12:50:27;;;;;;;3.43;3.23;;;11.10;62.20;;;;;;20967;6627;69512;-86
2021/12/04 12:53:06;;;;;;;3.30;3.10;;;10.90;62.30;;;;;;21435;6626;66785;-86
2021/12/04 12:55:34;;;;;;;3.00;2.80;;;10.80;62.70;;;;;;21269;6627;300076;-88
2021/12/04 12:57:58;;;;;;;3.27;3.00;;;11.00;62.60;;;;;;21489;6627;66516;-90
2021/12/04 13:11:46;;;;;;;1.60;1.50;;;11.00;62.50;;;;;;21239;6627;300508;-87
2021/12/04 13:14:18;;;;;;;1.90;1.40;;;11.30;60.90;;;;;;21450;6627;66360;-92
2021/12/04 13:16:50;;;;;;;1.20;1.20;;;11.30;60.50;;;;;;21477;6627;69261;-83
2021/12/04 13:19:17;;;;;;;0.90;0.90;;;11.10;60.90;;;;;;21423;6627;67574;-86
2021/12/04 13:21:41;;;;;;;1.10;0.80;;;11.00;61.40;;;;;;21227;6627;292016;-87
2021/12/04 13:24:07;;;;;;;2.10;1.50;;;11.10;60.90;;;;;;21240;6627;328341;-84
2021/12/04 13:26:32;;;;;;;1.33;1.23;;;11.40;60.00;;;;;;21436;6627;66539;-85
2021/12/04 13:28:59;;;;;;;0.70;0.70;;;11.40;59.70;;;;;;21191;6627;301965;-85
2021/12/04 13:31:23;;;;;;;0.80;0.80;;;11.50;59.50;;;;;;21427;6627;66204;-85
2021/12/04 13:33:49;;;;;;;0.70;0.70;;;11.50;59.50;;;;;;21435;6627;66171;-85
2021/12/04 13:36:15;;;;;;;1.67;1.10;;;11.30;59.70;;;;;;21200;6627;300656;-86
2021/12/04 13:38:40;;;;;;;0.73;0.73;;;11.30;59.10;;;;;;21211;6627;300757;-86
2021/12/04 13:41:06;;;;;;;1.20;1.10;;;11.60;58.30;;;;;;21423;6627;76432;-86
2021/12/04 13:43:31;;;;;;;3.60;1.23;;;11.50;58.20;;;;;;21229;6627;300809;-81
2021/12/04 13:45:57;;;;;;;3.60;1.35;;;11.60;58.30;;;;;;21238;6627;302598;-80
2021/12/04 13:48:24;;;;;;;3.35;2.70;;;11.80;58.00;;;;;;21246;6627;271314;-80
2021/12/04 13:50:48;;;;;;;1.52;1.40;;;11.90;57.80;;;;;;21252;6627;300118;-85
2021/12/04 13:53:20;;;;;;;2.33;2.13;;;12.00;57.80;;;;;;21444;6627;67131;-85
2021/12/04 13:55:45;;;;;;;1.77;1.67;;;11.80;57.70;;;;;;21438;6627;66419;-87
2021/12/04 13:58:11;;;;;;;0.90;0.90;;;11.40;58.50;;;;;;21402;6627;77186;-86
2021/12/04 14:00:36;;;;;;;2.42;0.75;;;11.10;59.30;;;;;;21207;6627;325129;-86
2021/12/04 14:03:02;;;;;;;1.00;0.90;;;11.10;59.80;;;;;;21213;6625;271489;-85
2021/12/04 14:05:28;;;;;;;1.10;1.10;;;11.40;59.60;;;;;;21441;6627;66767;-88
2021/12/04 14:07:54;;;;;;;0.67;0.67;;;11.00;59.90;;;;;;21444;6627;66950;-90
2021/12/04 14:10:20;;;;;;;0.67;0.67;;;11.00;59.90;;;;;;21447;6627;66456;-86
2021/12/04 14:12:45;;;;;;;0.50;0.50;;;10.70;60.50;;;;;;21494;6627;66551;-90
2021/12/04 14:15:11;;;;;;;4.53;1.00;;;10.60;61.20;;;;;;21332;6627;327395;-93
2021/12/04 14:17:36;;;;;;;0.57;0.50;;;10.60;62.20;;;;;;21488;6627;67581;-91
2021/12/04 14:20:02;;;;;;;0.82;0.43;;;10.60;61.80;;;;;;21510;6627;66096;-89
2021/12/04 14:22:28;;;;;;;0.93;0.67;;;10.50;62.20;;;;;;21533;6627;66520;-94
2021/12/04 14:24:56;;;;;;;1.43;0.63;;;10.30;62.50;;;;;;21477;6627;66510;-93
2021/12/04 14:27:19;;;;;;;1.10;0.80;;;10.20;62.90;;;;;;21227;6627;300048;-90
2021/12/04 14:29:46;;;;;;;0.90;0.90;;;10.30;63.90;;;;;;21226;6627;287953;-88
2021/12/04 14:32:10;;;;;;;1.17;0.73;;;10.70;63.70;;;;;;21414;6627;67095;-90
2021/12/04 14:34:36;;;;;;;0.70;0.70;;;10.80;63.00;;;;;;21211;6627;329522;-90
2021/12/04 14:37:10;;;;;;;1.17;0.43;;;10.80;62.90;;;;;;21438;6627;71409;-90
2021/12/04 14:39:35;;;;;;;0.50;0.50;;;10.50;63.00;;;;;;21433;6627;67034;-91
2021/12/04 14:42:00;;;;;;;0.50;0.50;;;10.50;63.00;;;;;;21436;6627;66590;-88
2021/12/04 14:44:26;;;;;;;0.50;0.50;;;10.40;63.40;;;;;;21401;6627;66549;-90
2021/12/04 14:46:51;;;;;;;1.90;0.70;;;10.20;63.70;;;;;;21213;6627;300632;-91
2021/12/04 14:49:17;;;;;;;13.13;11.30;;;10.40;63.80;;;;;;21438;6627;66618;-89
2021/12/04 14:51:42;;;;;;;6.10;5.60;;;10.40;63.40;;;;;;21221;6627;272029;-86
2021/12/04 14:54:08;;;;;;;2.63;2.50;;;10.60;63.60;;;;;;21437;6627;71113;-91
2021/12/04 14:56:34;;;;;;;1.27;1.23;;;10.60;63.10;;;;;;21448;6627;76243;-88
2021/12/04 14:58:59;;;;;;;1.20;1.20;;;10.50;63.30;;;;;;21449;6627;70011;-91
2021/12/04 15:01:26;;;;;;;3.03;2.93;;;10.30;63.60;;;;;;21249;6627;299446;-91
2021/12/04 15:03:52;;;;;;;1.58;1.48;;;10.80;63.10;;;;;;21229;6627;300593;-88
2021/12/04 15:06:17;;;;;;;3.30;2.47;;;10.80;62.90;;;;;;21209;6627;271486;-89
2021/12/04 15:08:42;;;;;;;7.57;7.28;;;11.10;61.90;;;;;;21427;6627;66733;-87
2021/12/04 15:11:08;;;;;;;1.10;1.10;;;10.80;61.90;;;;;;21392;6627;66529;-88
2021/12/04 15:13:35;;;;;;;0.70;0.70;;;10.80;61.90;;;;;;21420;6625;66485;-88
2021/12/04 15:16:00;;;;;;;1.80;0.80;;;10.60;62.40;;;;;;21204;6626;271501;-88
2021/12/04 15:18:26;;;;;;;0.90;0.75;;;10.70;62.10;;;;;;21210;6627;275691;-90
2021/12/04 15:20:54;;;;;;;1.47;1.37;;;11.00;61.30;;;;;;21196;6627;300341;-88
2021/12/04 15:23:20;;;;;;;0.80;0.80;;;11.30;60.30;;;;;;21221;6627;66583;-88
2021/12/04 15:25:45;;;;;;;0.80;0.80;;;11.20;60.10;;;;;;21434;6627;66804;-87
2021/12/04 15:28:16;;;;;;;0.68;0.68;;;10.90;60.60;;;;;;21433;6627;66163;-85
2021/12/04 15:30:42;;;;;;;1.83;1.20;;;10.70;61.20;;;;;;21467;6627;66571;-86
2021/12/04 15:33:07;;;;;;;1.10;1.00;;;10.50;61.80;;;;;;21423;6627;66617;-87
2021/12/04 15:35:38;;;;;;;1.87;1.83;;;10.50;62.40;;;;;;21222;6627;274681;-89
2021/12/04 15:38:11;;;;;;;1.00;1.00;;;10.50;62.40;;;;;;21428;6627;66602;-86
2021/12/04 15:45:53;;;;;;;1.25;1.00;;;10.30;62.50;;;;;;20134;6978;313043;-86
2021/12/04 15:51:16;;;;;;;1.20;0.80;;;10.80;61.20;;;;;;21264;6627;300488;-86